Safe, Missouri
Current Conditions -  °F | °C
As of 12:53 PM on Tuesday 27 Jan 2015 (Local Time) from KVIH Reporting Station
Few Clouds Few Clouds  
Wind Chill: 47°   Ceiling: Unl
Heat Index: 47°   Visibility: NA
Dew Point: 33°   Wind: 0mph
Humidity: 59%   Direction: NA
Pressure: 30.12"   Gusts: NA
Location:  37.9936°N, 91.5964°W
Report Text: KVIH 271853Z AUTO 00000KT FEW028 08/01 A3012 RMK AO2 SLP203 T00830006 $
Loading
Personal Weather Stations






























Interactive Weather Map New forecast layout! Learn more

10-Day Weather Forecast

Advertisements
Track Severe Weather on mobile